EBBR/BRU METAR and TAF weather

Enter ICAO airport designator
Station Type Date Time Source
EBBR METAR 2018/01/21 12:20 UTC NOAA

EBBR 211220Z 21005KT 8000 FEW011 05/02 Q1017 NOSIG


Station Type Date Time Source
EBBR Decoded METAR 2018/01/21 12:20 UTC NOAA

Bruxelles National, Belgium (EBBR) 50-54N 004-32E 58M
Jan 21, 2018 - 07:20 AM EST / 2018.01.21 1220 UTC
Wind: from the SSW (210 degrees) at 6 MPH (5 KT):0
Visibility: 4 mile(s):0
Sky conditions: mostly clear
Temperature: 41 F (5 C)
Dew Point: 35 F (2 C)
Relative Humidity: 80%
Pressure (altimeter): 30.03 in. Hg (1017 hPa)
ob: EBBR 211220Z 21005KT 8000 FEW011 05/02 Q1017 NOSIG
cycle: 12

Station Type Date Time Source
EBBR TAF 2018/01/21 12:42 UTC NOAA

TAF COR TAF COR EBBR 211120Z 2112/2218 21005KT CAVOK
TEMPO 2119/2206 BKN012
BECMG 2120/2122 15010KT PROB40
TEMPO 2120/2124 3800 RASN RADZ BKN005
BECMG 2200/2202 21010KT PROB40
TEMPO 2200/2205 BKN005
BECMG 2206/2208 27008KT


Example: see airport list